createdAt,value
2018-05-17T00:01:02.520Z,75.40
2018-05-17T00:03:29.986Z,75.30
2018-05-17T00:05:57.477Z,75.20
2018-05-17T00:08:26.578Z,75.20
2018-05-17T00:10:54.838Z,75.10
2018-05-17T00:13:22.345Z,75.10
2018-05-17T00:15:49.836Z,75.20
2018-05-17T00:18:17.360Z,75.10
2018-05-17T00:20:44.865Z,75.10
2018-05-17T00:23:12.398Z,75.30
2018-05-17T00:25:39.887Z,75.50
2018-05-17T00:28:07.400Z,75.30
2018-05-17T00:30:34.870Z,75.20
2018-05-17T00:33:02.380Z,75.40
2018-05-17T00:35:30.632Z,75.40
2018-05-17T00:37:58.107Z,75.40
2018-05-17T00:40:25.626Z,75.40
2018-05-17T00:42:53.217Z,75.50
2018-05-17T00:45:20.690Z,75.40
2018-05-17T00:47:48.993Z,75.20
2018-05-17T00:50:16.500Z,75.20
2018-05-17T00:52:43.961Z,75.40
2018-05-17T00:55:11.461Z,75.50
2018-05-17T00:57:38.960Z,75.60
2018-05-17T01:00:06.478Z,75.60
2018-05-17T01:02:34.723Z,75.50
2018-05-17T01:05:02.227Z,75.50
2018-05-17T01:07:29.717Z,75.60
2018-05-17T01:09:57.187Z,75.50
2018-05-17T01:12:24.685Z,75.40
2018-05-17T01:14:52.933Z,75.50
2018-05-17T01:17:20.442Z,75.50
2018-05-17T01:19:47.909Z,75.50
2018-05-17T01:22:15.421Z,75.60
2018-05-17T01:24:43.665Z,75.50
2018-05-17T01:27:11.156Z,75.50
2018-05-17T01:29:39.413Z,74.90
2018-05-17T01:32:06.911Z,74.80
2018-05-17T01:34:35.160Z,74.70
2018-05-17T01:37:14.593Z,74.70
2018-05-17T01:39:42.068Z,75.00
2018-05-17T01:42:09.621Z,74.90
2018-05-17T01:44:37.053Z,75.10
2018-05-17T01:47:04.527Z,75.00
2018-05-17T01:49:32.013Z,75.00
2018-05-17T01:52:00.276Z,74.80
2018-05-17T01:54:27.759Z,74.70
2018-05-17T01:56:56.022Z,75.20
2018-05-17T01:59:24.262Z,75.30
2018-05-17T02:01:51.746Z,75.30
2018-05-17T02:04:19.255Z,75.30
2018-05-17T02:06:46.725Z,75.10
2018-05-17T02:09:14.249Z,75.00
2018-05-17T02:11:42.476Z,75.30
2018-05-17T02:14:11.480Z,75.30
2018-05-17T02:16:39.721Z,75.20
2018-05-17T02:19:07.317Z,75.20
2018-05-17T02:21:34.753Z,75.10
2018-05-17T02:24:02.357Z,75.00
2018-05-17T02:26:30.621Z,75.20
2018-05-17T02:28:58.108Z,75.20
2018-05-17T02:31:26.361Z,75.50
2018-05-17T02:33:53.857Z,75.50
2018-05-17T02:36:21.349Z,75.50
2018-05-17T02:38:48.817Z,75.40
2018-05-17T02:41:16.317Z,75.40
2018-05-17T02:43:43.915Z,75.50
2018-05-17T02:46:11.413Z,75.50
2018-05-17T02:48:38.902Z,75.50
2018-05-17T02:51:06.411Z,75.50
2018-05-17T02:53:33.919Z,75.50
2018-05-17T02:56:02.174Z,75.60
2018-05-17T02:58:30.411Z,75.70
2018-05-17T03:00:57.915Z,75.60
2018-05-17T03:03:26.158Z,75.70
2018-05-17T03:05:53.695Z,75.60
2018-05-17T03:08:21.190Z,75.60
2018-05-17T03:10:48.713Z,75.70
2018-05-17T03:13:16.189Z,75.60
2018-05-17T03:15:43.681Z,75.70
2018-05-17T03:18:11.933Z,75.70
2018-05-17T03:20:39.437Z,75.70
2018-05-17T03:23:07.681Z,75.70
2018-05-17T03:25:35.944Z,75.70
2018-05-17T03:28:04.960Z,75.60
2018-05-17T03:30:32.452Z,75.60
2018-05-17T03:32:59.970Z,75.60
2018-05-17T03:35:27.449Z,75.60
2018-05-17T03:37:55.758Z,75.50
2018-05-17T03:40:23.261Z,75.50
2018-05-17T03:42:50.764Z,75.60
2018-05-17T03:45:18.274Z,75.50
2018-05-17T03:47:45.777Z,75.50
2018-05-17T03:50:13.297Z,75.50
2018-05-17T03:52:40.769Z,75.50
2018-05-17T03:55:08.267Z,75.50
2018-05-17T03:57:35.737Z,75.50
2018-05-17T04:00:03.264Z,75.50
2018-05-17T04:02:42.613Z,75.50
2018-05-17T04:05:22.098Z,75.50
2018-05-17T04:07:49.564Z,75.50
2018-05-17T04:10:17.100Z,75.50
2018-05-17T04:12:44.583Z,75.60
2018-05-17T04:15:12.049Z,75.50
2018-05-17T04:17:39.581Z,75.50
2018-05-17T04:20:07.079Z,75.60
2018-05-17T04:22:35.341Z,75.60
2018-05-17T04:25:02.825Z,75.60
2018-05-17T04:27:31.116Z,75.70
2018-05-17T04:29:58.610Z,75.60
2018-05-17T04:32:26.147Z,75.70
2018-05-17T04:34:53.640Z,75.80
2018-05-17T04:37:21.137Z,75.80
2018-05-17T04:39:49.385Z,75.90
2018-05-17T04:42:16.903Z,75.90
2018-05-17T04:44:44.409Z,75.90
2018-05-17T04:47:11.977Z,75.90
2018-05-17T04:49:39.449Z,76.00
2018-05-17T04:52:07.712Z,76.00
2018-05-17T04:54:35.960Z,76.00
2018-05-17T04:57:03.488Z,76.00
2018-05-17T04:59:30.999Z,76.00
2018-05-17T05:01:58.497Z,76.00
2018-05-17T05:04:26.012Z,76.10
2018-05-17T05:06:53.477Z,76.10
2018-05-17T05:09:21.076Z,76.20
2018-05-17T05:11:48.462Z,76.10
2018-05-17T05:14:15.966Z,76.00
2018-05-17T05:16:44.225Z,76.20
2018-05-17T05:19:11.741Z,76.20
2018-05-17T05:21:39.269Z,76.30
2018-05-17T05:24:07.532Z,76.20
2018-05-17T05:26:35.005Z,76.10
2018-05-17T05:29:03.264Z,75.90
2018-05-17T05:31:30.781Z,75.90
2018-05-17T05:33:58.268Z,76.30
2018-05-17T05:36:25.770Z,76.50
2018-05-17T05:38:53.270Z,76.50
2018-05-17T05:41:20.759Z,76.30
2018-05-17T05:43:48.247Z,76.40
2018-05-17T05:46:15.749Z,76.50
2018-05-17T05:48:43.266Z,77.00
2018-05-17T05:51:11.494Z,76.90
2018-05-17T05:53:39.011Z,76.90
2018-05-17T05:56:06.513Z,76.50
2018-05-17T05:58:34.016Z,76.50
2018-05-17T06:01:01.519Z,76.50
2018-05-17T06:03:29.009Z,76.50
2018-05-17T06:06:02.178Z,76.60
2018-05-17T06:08:29.676Z,76.30
2018-05-17T06:10:57.944Z,76.20
2018-05-17T06:13:26.197Z,76.20
2018-05-17T06:15:53.720Z,76.20
2018-05-17T06:18:21.203Z,75.80
2018-05-17T06:20:48.719Z,76.20
2018-05-17T06:23:16.217Z,76.10
2018-05-17T06:25:43.718Z,76.20
2018-05-17T06:28:11.961Z,76.80
2018-05-17T06:30:39.472Z,76.80
2018-05-17T06:33:06.948Z,76.30
2018-05-17T06:35:34.445Z,76.40
2018-05-17T06:38:01.943Z,76.20
2018-05-17T06:40:29.429Z,76.70
2018-05-17T06:42:56.925Z,76.70
2018-05-17T06:45:25.210Z,77.20
2018-05-17T06:47:52.682Z,77.20
2018-05-17T06:50:20.930Z,76.90
2018-05-17T06:52:48.451Z,76.90
2018-05-17T06:55:15.952Z,76.70
2018-05-17T06:57:43.480Z,76.90
2018-05-17T07:00:11.014Z,76.90
2018-05-17T07:02:38.488Z,77.00
2018-05-17T07:05:05.990Z,77.00
2018-05-17T07:07:33.521Z,77.10
2018-05-17T07:10:01.014Z,77.10
2018-05-17T07:12:28.496Z,76.80
2018-05-17T07:14:56.757Z,76.90
2018-05-17T07:17:25.009Z,76.80
2018-05-17T07:19:52.519Z,76.80
2018-05-17T07:22:20.782Z,77.40
2018-05-17T07:24:49.054Z,77.10
2018-05-17T07:27:17.301Z,77.00
2018-05-17T07:29:44.792Z,76.90
2018-05-17T07:32:13.059Z,76.90
2018-05-17T07:34:40.570Z,76.90
2018-05-17T07:37:08.056Z,77.20
2018-05-17T07:39:35.576Z,77.50
2018-05-17T07:42:03.057Z,78.00
2018-05-17T07:44:30.564Z,76.40
2018-05-17T07:46:58.835Z,73.20
2018-05-17T07:49:27.073Z,75.40
2018-05-17T07:51:54.620Z,75.40
2018-05-17T07:54:22.089Z,75.20
2018-05-17T07:56:49.630Z,76.00
2018-05-17T07:59:17.094Z,76.10
2018-05-17T08:01:44.603Z,74.80
2018-05-17T08:04:12.846Z,75.40
2018-05-17T08:06:40.357Z,75.40
2018-05-17T08:09:08.598Z,74.10
2018-05-17T08:11:36.123Z,74.10
2018-05-17T08:14:03.653Z,74.60
2018-05-17T08:16:31.941Z,75.30
2018-05-17T08:18:59.410Z,75.30
2018-05-17T08:21:26.863Z,75.10
2018-05-17T08:23:54.402Z,74.80
2018-05-17T08:26:22.654Z,75.80
2018-05-17T08:28:50.973Z,76.50
2018-05-17T08:31:19.176Z,75.70
2018-05-17T08:33:46.760Z,75.70
2018-05-17T08:36:14.356Z,75.80
2018-05-17T08:38:42.517Z,75.60
2018-05-17T08:47:05.287Z,75.80
2018-05-17T08:49:32.774Z,76.60
2018-05-17T08:52:00.238Z,76.10
2018-05-17T08:54:27.775Z,76.10
2018-05-17T08:56:55.241Z,75.60
2018-05-17T08:59:22.765Z,75.60
2018-05-17T09:01:50.271Z,76.20
2018-05-17T09:04:17.772Z,75.40
2018-05-17T09:06:46.057Z,76.90
2018-05-17T09:09:13.597Z,76.80
2018-05-17T09:11:41.864Z,75.90
2018-05-17T09:14:09.350Z,75.90
2018-05-17T09:16:37.615Z,73.80
2018-05-17T09:19:05.876Z,74.50
2018-05-17T09:21:33.367Z,74.50
2018-05-17T09:24:00.868Z,74.50
2018-05-17T09:26:28.369Z,75.50
2018-05-17T09:28:56.612Z,75.10
2018-05-17T09:31:24.127Z,75.10
2018-05-17T09:33:51.609Z,75.10
2018-05-17T09:36:19.112Z,75.20
2018-05-17T09:38:46.600Z,75.80
2018-05-17T09:41:14.085Z,76.10
2018-05-17T09:43:41.580Z,75.60
2018-05-17T09:46:09.078Z,75.70
2018-05-17T09:48:36.585Z,75.90
2018-05-17T09:51:04.040Z,75.70
2018-05-17T09:53:31.545Z,76.00
2018-05-17T09:55:59.054Z,75.80
2018-05-17T09:58:26.583Z,75.70
2018-05-17T10:00:54.090Z,76.70
2018-05-17T10:03:23.373Z,76.70
2018-05-17T10:05:50.876Z,77.10
2018-05-17T10:08:19.135Z,76.80
2018-05-17T10:10:47.383Z,76.60
2018-05-17T10:13:14.885Z,76.60
2018-05-17T10:15:43.133Z,76.90
2018-05-17T10:18:10.621Z,76.90
2018-05-17T10:20:38.911Z,77.20
2018-05-17T10:23:06.403Z,77.20
2018-05-17T10:25:33.913Z,76.60
2018-05-17T10:28:02.175Z,77.40
2018-05-17T10:30:30.449Z,76.60
2018-05-17T10:32:59.450Z,76.80
2018-05-17T10:35:27.733Z,76.90
2018-05-17T10:37:55.976Z,77.30
2018-05-17T10:40:23.494Z,77.30
2018-05-17T10:42:50.973Z,76.80
2018-05-17T10:45:18.517Z,76.40
2018-05-17T10:47:46.023Z,76.40
2018-05-17T10:50:13.537Z,76.70
2018-05-17T10:52:41.025Z,76.50
2018-05-17T10:55:08.534Z,75.90
2018-05-17T10:57:36.801Z,76.60
2018-05-17T11:00:05.054Z,76.60
2018-05-17T11:02:32.586Z,76.60
2018-05-17T11:05:00.834Z,76.10
2018-05-17T11:07:28.340Z,76.30
2018-05-17T11:09:55.845Z,76.40
2018-05-17T11:12:23.358Z,76.10
2018-05-17T11:14:50.834Z,76.60
2018-05-17T11:17:19.125Z,76.50
2018-05-17T11:19:47.377Z,74.80
2018-05-17T11:22:14.899Z,74.80
2018-05-17T11:24:42.376Z,76.10
2018-05-17T11:27:09.859Z,76.40
2018-05-17T11:29:37.379Z,76.70
2018-05-17T11:32:04.844Z,75.40
2018-05-17T11:34:32.373Z,75.00
2018-05-17T11:36:59.865Z,75.80
2018-05-17T11:39:27.414Z,75.40
2018-05-17T11:41:54.890Z,75.20
2018-05-17T11:44:22.373Z,74.70
2018-05-17T11:46:49.880Z,75.60
2018-05-17T11:49:17.366Z,75.00
2018-05-17T11:51:44.865Z,74.90
2018-05-17T11:54:13.125Z,73.90
2018-05-17T11:56:40.672Z,74.00
2018-05-17T11:59:08.165Z,74.80
2018-05-17T12:01:36.531Z,73.20
2018-05-17T12:04:04.686Z,73.30
2018-05-17T12:06:32.198Z,73.30
2018-05-17T12:08:59.707Z,74.00
2018-05-17T12:11:27.241Z,72.90
2018-05-17T12:13:54.733Z,72.90
2018-05-17T12:16:22.245Z,74.40
2018-05-17T12:18:49.745Z,75.20
2018-05-17T12:21:17.998Z,74.70
2018-05-17T12:23:45.496Z,74.70
2018-05-17T12:26:13.774Z,73.50
2018-05-17T12:28:41.289Z,73.40
2018-05-17T12:31:08.782Z,73.60
2018-05-17T12:33:36.292Z,73.80
2018-05-17T12:36:03.776Z,73.20
2018-05-17T12:38:31.284Z,74.30
2018-05-17T12:40:59.576Z,74.10
2018-05-17T12:43:27.073Z,74.20
2018-05-17T12:45:54.588Z,73.70
2018-05-17T12:48:22.863Z,74.50
2018-05-17T12:50:51.141Z,74.50
2018-05-17T12:53:18.629Z,74.40
2018-05-17T12:55:46.156Z,74.30
2018-05-17T12:58:14.430Z,73.80
2018-05-17T13:00:42.702Z,73.70
2018-05-17T13:03:10.936Z,73.70
2018-05-17T13:05:38.530Z,73.70
2018-05-17T13:08:06.778Z,73.00
2018-05-17T13:10:34.284Z,73.00
2018-05-17T13:13:02.581Z,74.10
2018-05-17T13:15:30.066Z,74.10
2018-05-17T13:17:57.542Z,73.10
2018-05-17T13:20:25.077Z,73.60
2018-05-17T13:22:52.561Z,74.10
2018-05-17T13:25:20.065Z,74.10
2018-05-17T13:27:47.567Z,73.60
2018-05-17T13:30:15.125Z,73.90
2018-05-17T13:32:42.614Z,75.10
2018-05-17T13:35:10.905Z,74.00
2018-05-17T13:37:39.154Z,74.00
2018-05-17T13:40:06.646Z,74.00
2018-05-17T13:42:34.148Z,74.80
2018-05-17T13:45:01.626Z,74.50
2018-05-17T13:47:29.161Z,75.40
2018-05-17T13:49:56.621Z,75.00
2018-05-17T13:52:24.142Z,74.60
2018-05-17T13:54:51.624Z,75.40
2018-05-17T13:57:19.142Z,75.80
2018-05-17T13:59:47.395Z,74.70
2018-05-17T14:02:14.924Z,74.70
2018-05-17T14:04:42.426Z,75.10
2018-05-17T14:07:09.938Z,73.90
2018-05-17T14:09:37.532Z,74.40
2018-05-17T14:12:05.703Z,74.30
2018-05-17T14:14:33.221Z,74.30
2018-05-17T14:17:00.740Z,74.00
2018-05-17T14:19:28.267Z,73.80
2018-05-17T14:21:55.755Z,75.10
2018-05-17T14:24:23.271Z,74.80
2018-05-17T14:26:54.394Z,75.50
2018-05-17T14:29:21.937Z,74.10
2018-05-17T14:31:50.229Z,74.40
2018-05-17T14:34:18.475Z,74.20
2018-05-17T14:36:46.767Z,74.40
2018-05-17T14:39:15.013Z,74.70
2018-05-17T14:41:42.532Z,74.70
2018-05-17T14:44:10.029Z,74.60
2018-05-17T14:46:37.568Z,74.70
2018-05-17T14:49:05.053Z,74.90
2018-05-17T14:51:32.573Z,74.70
2018-05-17T14:54:00.062Z,75.00
2018-05-17T14:56:27.606Z,74.00
2018-05-17T14:58:55.090Z,73.60
2018-05-17T15:01:22.568Z,73.00
2018-05-17T15:03:50.857Z,73.40
2018-05-17T15:06:19.116Z,72.60
2018-05-17T15:08:46.658Z,72.60
2018-05-17T15:11:14.967Z,74.20
2018-05-17T15:13:41.655Z,73.70
2018-05-17T15:16:09.176Z,73.00
2018-05-17T15:18:37.462Z,72.90
2018-05-17T15:21:04.941Z,72.80
2018-05-17T15:23:32.444Z,73.70
2018-05-17T15:25:59.936Z,72.70
2018-05-17T15:28:28.215Z,72.50
2018-05-17T15:30:55.729Z,72.50
2018-05-17T15:33:23.247Z,71.30
2018-05-17T15:35:50.746Z,71.90
2018-05-17T15:38:18.278Z,71.90
2018-05-17T15:40:45.783Z,71.90
2018-05-17T15:43:13.281Z,72.50
2018-05-17T15:45:40.797Z,71.30
2018-05-17T15:48:08.384Z,71.20
2018-05-17T15:50:35.836Z,72.50
2018-05-17T15:53:04.093Z,71.90
2018-05-17T15:55:31.617Z,71.90
2018-05-17T15:57:59.126Z,71.00
2018-05-17T16:00:27.398Z,71.40
2018-05-17T16:02:55.681Z,72.00
2018-05-17T16:05:23.981Z,71.90
2018-05-17T16:07:51.461Z,71.90
2018-05-17T16:10:18.994Z,71.80
2018-05-17T16:12:46.478Z,71.50
2018-05-17T16:15:14.111Z,72.40
2018-05-17T16:17:42.275Z,71.30
2018-05-17T16:20:10.577Z,72.40
2018-05-17T16:22:38.070Z,72.40
2018-05-17T16:25:05.564Z,72.60
2018-05-17T16:27:33.861Z,72.40
2018-05-17T16:30:01.335Z,72.40
2018-05-17T16:32:28.858Z,73.60
2018-05-17T16:34:57.107Z,72.20
2018-05-17T16:37:24.617Z,72.20
2018-05-17T16:39:52.103Z,72.40
2018-05-17T16:42:19.611Z,73.10
2018-05-17T16:44:47.897Z,73.40
2018-05-17T16:47:16.155Z,73.30
2018-05-17T16:49:44.431Z,72.90
2018-05-17T16:52:12.701Z,72.30
2018-05-17T16:54:41.739Z,72.10
2018-05-17T16:57:09.251Z,72.10
2018-05-17T16:59:36.771Z,72.00
2018-05-17T17:02:04.287Z,72.20
2018-05-17T17:04:32.604Z,71.70
2018-05-17T17:07:00.154Z,71.70
2018-05-17T17:09:27.617Z,72.30
2018-05-17T17:11:55.093Z,72.20
2018-05-17T17:14:22.600Z,72.40
2018-05-17T17:16:50.876Z,72.40
2018-05-17T17:19:19.878Z,72.50
2018-05-17T17:21:48.150Z,72.50
2018-05-17T17:24:16.397Z,71.50
2018-05-17T17:26:43.912Z,71.40
2018-05-17T17:29:11.394Z,72.10
2018-05-17T17:31:38.907Z,72.00
2018-05-17T17:34:07.144Z,71.40
2018-05-17T17:36:34.705Z,71.40
2018-05-17T17:39:02.177Z,71.30
2018-05-17T17:41:29.685Z,72.20
2018-05-17T17:43:57.179Z,72.10
2018-05-17T17:46:24.707Z,71.90
2018-05-17T17:48:52.207Z,72.50
2018-05-17T17:51:19.712Z,71.80
2018-05-17T17:53:47.208Z,72.10
2018-05-17T17:56:14.717Z,71.40
2018-05-17T17:58:42.976Z,72.40
2018-05-17T18:01:11.988Z,71.60
2018-05-17T18:03:40.272Z,72.60
2018-05-17T18:06:08.613Z,72.80
2018-05-17T18:08:36.877Z,72.80
2018-05-17T18:11:04.386Z,72.40
2018-05-17T18:13:32.668Z,72.80
2018-05-17T18:16:00.157Z,72.80
2018-05-17T18:18:27.660Z,73.20
2018-05-17T18:20:55.168Z,73.30
2018-05-17T18:23:22.682Z,72.80
2018-05-17T18:25:50.166Z,73.10
2018-05-17T18:28:17.690Z,73.10
2018-05-17T18:30:46.319Z,73.70
2018-05-17T18:33:13.804Z,73.70
2018-05-17T18:35:41.330Z,73.70
2018-05-17T18:38:08.809Z,73.60
2018-05-17T18:40:36.344Z,73.40
2018-05-17T18:43:03.894Z,73.70
2018-05-17T18:45:33.193Z,73.90
2018-05-17T18:48:01.466Z,74.10
2018-05-17T18:50:29.756Z,74.30
2018-05-17T18:52:58.021Z,73.90
2018-05-17T18:55:26.332Z,74.20
2018-05-17T18:57:53.805Z,74.20
2018-05-17T19:00:21.416Z,74.50
2018-05-17T19:02:49.716Z,74.30
2018-05-17T19:05:17.981Z,74.60
2018-05-17T19:07:45.458Z,74.60
2018-05-17T19:10:12.964Z,74.50
2018-05-17T19:12:40.501Z,74.40
2018-05-17T19:15:08.007Z,74.70
2018-05-17T19:17:36.262Z,74.40
2018-05-17T19:20:03.793Z,74.40
2018-05-17T19:22:31.287Z,74.30
2018-05-17T19:24:58.796Z,74.10
2018-05-17T19:27:26.269Z,73.70
2018-05-17T19:29:53.803Z,73.90
2018-05-17T19:32:21.294Z,73.70
2018-05-17T19:34:48.804Z,73.90
2018-05-17T19:37:17.278Z,73.70
2018-05-17T19:39:44.633Z,73.70
2018-05-17T19:42:12.886Z,73.90
2018-05-17T19:44:40.397Z,73.90
2018-05-17T19:47:07.885Z,73.90
2018-05-17T19:49:35.435Z,74.10
2018-05-17T19:52:02.916Z,73.80
2018-05-17T19:54:30.415Z,73.60
2018-05-17T19:56:58.674Z,73.70
2018-05-17T19:59:26.277Z,73.70
2018-05-17T20:01:54.033Z,73.40
2018-05-17T20:04:21.544Z,73.40
2018-05-17T20:06:49.051Z,73.30
2018-05-17T20:09:16.553Z,73.00
2018-05-17T20:11:44.041Z,73.20
2018-05-17T20:14:11.573Z,73.60
2018-05-17T20:16:39.058Z,73.50
2018-05-17T20:19:06.578Z,73.30
2018-05-17T20:21:34.094Z,73.10
2018-05-17T20:24:01.607Z,73.20
2018-05-17T20:26:29.120Z,73.20
2018-05-17T20:28:57.228Z,73.40
2018-05-17T20:31:24.719Z,73.20
2018-05-17T20:33:52.396Z,73.30
2018-05-17T20:36:20.660Z,73.30
2018-05-17T20:38:48.187Z,73.30
2018-05-17T20:41:15.692Z,73.30
2018-05-17T20:43:44.006Z,73.50
2018-05-17T20:46:11.516Z,73.50
2018-05-17T20:48:39.819Z,73.20
2018-05-17T20:51:08.067Z,73.90
2018-05-17T20:53:35.580Z,73.80
2018-05-17T20:56:03.110Z,74.20
2018-05-17T20:58:31.356Z,73.90
2018-05-17T21:00:58.879Z,73.90
2018-05-17T21:03:26.362Z,74.00
2018-05-17T21:05:53.882Z,73.60
2018-05-17T21:08:21.403Z,73.50
2018-05-17T21:10:48.929Z,73.60
2018-05-17T21:13:16.412Z,73.70
2018-05-17T21:15:43.920Z,73.70
2018-05-17T21:18:11.453Z,73.80
2018-05-17T21:20:39.710Z,73.50
2018-05-17T21:23:07.238Z,73.50
2018-05-17T21:25:34.764Z,73.90
2018-05-17T21:28:03.058Z,74.40
2018-05-17T21:30:30.531Z,74.30
2018-05-17T21:32:58.060Z,74.40
2018-05-17T21:35:25.531Z,74.30
2018-05-17T21:37:53.068Z,74.30
2018-05-17T21:40:21.313Z,74.60
2018-05-17T21:42:48.817Z,74.50
2018-05-17T21:45:16.299Z,74.90
2018-05-17T21:47:43.800Z,74.90
2018-05-17T21:50:11.291Z,75.10
2018-05-17T21:52:38.802Z,75.20
2018-05-17T21:55:06.297Z,75.10
2018-05-17T21:57:34.605Z,75.00
2018-05-17T22:00:02.085Z,74.90
2018-05-17T22:02:29.579Z,75.10
2018-05-17T22:04:57.089Z,74.90
2018-05-17T22:07:24.572Z,74.90
2018-05-17T22:09:52.108Z,74.90
2018-05-17T22:12:19.594Z,74.70
2018-05-17T22:14:47.104Z,74.60
2018-05-17T22:17:14.585Z,74.60
2018-05-17T22:19:42.091Z,74.70
2018-05-17T22:22:10.353Z,74.80
2018-05-17T22:24:37.889Z,74.80
2018-05-17T22:27:05.367Z,74.90
2018-05-17T22:29:32.869Z,74.80
2018-05-17T22:32:00.373Z,74.90
2018-05-17T22:34:27.888Z,74.80
2018-05-17T22:36:55.392Z,74.90
2018-05-17T22:39:22.881Z,74.90
2018-05-17T22:41:51.157Z,74.90
2018-05-17T22:44:18.658Z,74.80
2018-05-17T22:46:46.189Z,74.90
2018-05-17T22:49:14.575Z,74.90
2018-05-17T22:51:42.931Z,75.00
2018-05-17T22:54:10.327Z,75.00
2018-05-17T22:56:49.680Z,75.10
2018-05-17T22:59:17.173Z,75.00
2018-05-17T23:01:44.656Z,75.10
2018-05-17T23:04:12.907Z,75.00
2018-05-17T23:06:41.203Z,75.10
2018-05-17T23:09:09.496Z,75.00
2018-05-17T23:11:37.845Z,74.80
2018-05-17T23:14:05.345Z,74.80
2018-05-17T23:16:32.894Z,74.70
2018-05-17T23:19:01.180Z,74.80
2018-05-17T23:21:28.682Z,74.80
2018-05-17T23:23:56.186Z,74.80
2018-05-17T23:26:24.486Z,74.90
2018-05-17T23:28:51.962Z,74.90
2018-05-17T23:31:19.465Z,74.90
2018-05-17T23:33:46.965Z,74.80
2018-05-17T23:36:14.457Z,75.00
2018-05-17T23:38:41.952Z,74.90
2018-05-17T23:41:21.953Z,75.00
2018-05-17T23:43:49.454Z,75.00
2018-05-17T23:46:17.693Z,75.00
2018-05-17T23:48:45.246Z,75.00
2018-05-17T23:51:12.736Z,75.00
2018-05-17T23:53:40.225Z,74.90
2018-05-17T23:56:07.748Z,75.00
2018-05-17T23:58:35.243Z,75.00
